Bolivar, New York
Current Conditions -  °F | °C
As of 8:33 AM on Tuesday 21 Oct 2014 (Local Time) from KELZ Reporting Station
Overcast Overcast  
Wind Chill: 44°   Ceiling: 600
Heat Index: 47°   Visibility: 10mi
Dew Point: 45°   Wind: 6mph
Humidity: 93%   Direction: 250°WSW
Pressure: 29.83"   Gusts: NA
Location:  42.07°N, 78.17°W
Report Text: KELZ 211233Z AUTO 25005KT 10SM BKN006 OVC012 08/07 A2983 RMK AO2 RAE23 CIG 004V008 P0001 T00830072
Loading
Personal Weather Stations






























Interactive Weather Map
Tropical Storm Tracking
New forecast layout! Learn more

10-Day Weather Forecast

Advertisements
Track Severe Weather on mobile